sensor_id;sensor_type;location;lat;lon;timestamp;temperature;humidity
23556;DHT22;11956;53.184;8.578;2023-05-10T00:02:16;15.20;99.90
23556;DHT22;11956;53.184;8.578;2023-05-10T00:05:17;15.20;99.90
23556;DHT22;11956;53.184;8.578;2023-05-10T00:08:18;15.20;99.90
23556;DHT22;11956;53.184;8.578;2023-05-10T00:11:19;15.20;99.90
23556;DHT22;11956;53.184;8.578;2023-05-10T00:14:20;15.20;99.90
23556;DHT22;11956;53.184;8.578;2023-05-10T00:17:21;15.20;99.90
23556;DHT22;11956;53.184;8.578;2023-05-10T00:20:22;15.10;99.90
23556;DHT22;11956;53.184;8.578;2023-05-10T00:23:23;15.10;99.90
23556;DHT22;11956;53.184;8.578;2023-05-10T00:26:24;15.10;99.90
23556;DHT22;11956;53.184;8.578;2023-05-10T00:29:27;15.00;99.90
23556;DHT22;11956;53.184;8.578;2023-05-10T00:32:28;15.00;99.90
23556;DHT22;11956;53.184;8.578;2023-05-10T00:35:30;15.00;99.90
23556;DHT22;11956;53.184;8.578;2023-05-10T00:38:31;15.10;99.90
23556;DHT22;11956;53.184;8.578;2023-05-10T00:41:32;15.10;99.90
23556;DHT22;11956;53.184;8.578;2023-05-10T00:44:35;15.10;99.90
23556;DHT22;11956;53.184;8.578;2023-05-10T00:47:36;15.10;99.90
23556;DHT22;11956;53.184;8.578;2023-05-10T00:50:37;15.10;99.90
23556;DHT22;11956;53.184;8.578;2023-05-10T00:53:38;15.10;99.90
23556;DHT22;11956;53.184;8.578;2023-05-10T00:56:39;15.10;99.90
23556;DHT22;11956;53.184;8.578;2023-05-10T00:59:40;15.00;99.90
23556;DHT22;11956;53.184;8.578;2023-05-10T01:02:41;15.00;99.90
23556;DHT22;11956;53.184;8.578;2023-05-10T01:05:42;15.00;99.90
23556;DHT22;11956;53.184;8.578;2023-05-10T01:08:43;15.00;99.90
23556;DHT22;11956;53.184;8.578;2023-05-10T01:11:44;14.90;99.90
23556;DHT22;11956;53.184;8.578;2023-05-10T01:14:45;14.90;99.90
23556;DHT22;11956;53.184;8.578;2023-05-10T01:17:47;14.80;99.90
23556;DHT22;11956;53.184;8.578;2023-05-10T01:21:00;14.80;99.90
23556;DHT22;11956;53.184;8.578;2023-05-10T01:31:14;14.40;99.90
23556;DHT22;11956;53.184;8.578;2023-05-10T01:34:27;14.40;99.90
23556;DHT22;11956;53.184;8.578;2023-05-10T01:48:28;14.10;99.90
23556;DHT22;11956;53.184;8.578;2023-05-10T01:51:38;14.10;99.90
23556;DHT22;11956;53.184;8.578;2023-05-10T01:54:49;14.00;99.90
23556;DHT22;11956;53.184;8.578;2023-05-10T01:58:13;13.80;99.90
23556;DHT22;11956;53.184;8.578;2023-05-10T02:01:16;13.70;99.90
23556;DHT22;11956;53.184;8.578;2023-05-10T02:04:19;13.70;99.90
23556;DHT22;11956;53.184;8.578;2023-05-10T02:07:23;13.60;99.90
23556;DHT22;11956;53.184;8.578;2023-05-10T02:10:24;13.50;99.90
23556;DHT22;11956;53.184;8.578;2023-05-10T02:13:27;13.30;99.90
23556;DHT22;11956;53.184;8.578;2023-05-10T02:16:30;13.20;99.90
23556;DHT22;11956;53.184;8.578;2023-05-10T02:19:34;13.00;99.90
23556;DHT22;11956;53.184;8.578;2023-05-10T02:22:37;13.00;99.90
23556;DHT22;11956;53.184;8.578;2023-05-10T02:25:39;13.00;99.90
23556;DHT22;11956;53.184;8.578;2023-05-10T02:28:42;12.90;99.90
23556;DHT22;11956;53.184;8.578;2023-05-10T02:31:44;12.80;99.90
23556;DHT22;11956;53.184;8.578;2023-05-10T02:34:46;12.80;99.90
23556;DHT22;11956;53.184;8.578;2023-05-10T02:37:52;12.80;99.90
23556;DHT22;11956;53.184;8.578;2023-05-10T02:40:54;12.80;99.90
23556;DHT22;11956;53.184;8.578;2023-05-10T02:43:59;12.80;99.90
23556;DHT22;11956;53.184;8.578;2023-05-10T02:47:03;12.70;99.90
23556;DHT22;11956;53.184;8.578;2023-05-10T02:50:04;12.60;99.90
23556;DHT22;11956;53.184;8.578;2023-05-10T02:53:18;12.40;99.90
23556;DHT22;11956;53.184;8.578;2023-05-10T02:56:31;12.40;99.90
23556;DHT22;11956;53.184;8.578;2023-05-10T02:59:33;12.10;99.90
23556;DHT22;11956;53.184;8.578;2023-05-10T03:02:34;11.90;99.90
23556;DHT22;11956;53.184;8.578;2023-05-10T03:05:36;11.50;99.90
23556;DHT22;11956;53.184;8.578;2023-05-10T03:08:38;11.50;99.90
23556;DHT22;11956;53.184;8.578;2023-05-10T03:11:58;11.40;99.90
23556;DHT22;11956;53.184;8.578;2023-05-10T03:15:10;11.30;99.90
23556;DHT22;11956;53.184;8.578;2023-05-10T03:18:29;11.10;99.90
23556;DHT22;11956;53.184;8.578;2023-05-10T03:21:38;11.10;99.90
23556;DHT22;11956;53.184;8.578;2023-05-10T03:24:43;11.10;99.90
23556;DHT22;11956;53.184;8.578;2023-05-10T03:27:46;11.10;99.90
23556;DHT22;11956;53.184;8.578;2023-05-10T03:30:47;11.10;99.90
23556;DHT22;11956;53.184;8.578;2023-05-10T03:33:49;10.90;99.90
23556;DHT22;11956;53.184;8.578;2023-05-10T03:36:56;10.80;99.90
23556;DHT22;11956;53.184;8.578;2023-05-10T03:39:59;10.80;99.90
23556;DHT22;11956;53.184;8.578;2023-05-10T03:43:00;10.80;99.90
23556;DHT22;11956;53.184;8.578;2023-05-10T03:46:04;10.70;99.90
23556;DHT22;11956;53.184;8.578;2023-05-10T03:49:06;10.80;99.90
23556;DHT22;11956;53.184;8.578;2023-05-10T03:52:06;10.80;99.90
23556;DHT22;11956;53.184;8.578;2023-05-10T03:55:09;10.80;99.90
23556;DHT22;11956;53.184;8.578;2023-05-10T03:58:13;10.90;99.90
23556;DHT22;11956;53.184;8.578;2023-05-10T04:01:14;11.00;99.90
23556;DHT22;11956;53.184;8.578;2023-05-10T04:04:15;11.10;99.90
23556;DHT22;11956;53.184;8.578;2023-05-10T04:07:18;11.20;99.90
23556;DHT22;11956;53.184;8.578;2023-05-10T04:10:19;11.20;99.90
23556;DHT22;11956;53.184;8.578;2023-05-10T04:13:21;11.10;99.90
23556;DHT22;11956;53.184;8.578;2023-05-10T04:16:22;11.10;99.90
23556;DHT22;11956;53.184;8.578;2023-05-10T04:19:23;11.10;99.90
23556;DHT22;11956;53.184;8.578;2023-05-10T04:22:24;11.10;99.90
23556;DHT22;11956;53.184;8.578;2023-05-10T04:25:25;11.30;99.90
23556;DHT22;11956;53.184;8.578;2023-05-10T04:28:26;11.20;99.90
23556;DHT22;11956;53.184;8.578;2023-05-10T04:31:27;11.30;99.90
23556;DHT22;11956;53.184;8.578;2023-05-10T04:34:28;11.20;99.90
23556;DHT22;11956;53.184;8.578;2023-05-10T04:37:29;11.10;99.90
23556;DHT22;11956;53.184;8.578;2023-05-10T04:40:30;11.00;99.90
23556;DHT22;11956;53.184;8.578;2023-05-10T04:43:31;11.00;99.90
23556;DHT22;11956;53.184;8.578;2023-05-10T04:46:32;11.10;99.90
23556;DHT22;11956;53.184;8.578;2023-05-10T04:49:33;11.30;99.90
23556;DHT22;11956;53.184;8.578;2023-05-10T04:52:34;11.30;99.90
23556;DHT22;11956;53.184;8.578;2023-05-10T04:55:35;11.40;99.90
23556;DHT22;11956;53.184;8.578;2023-05-10T04:58:36;11.50;99.90
23556;DHT22;11956;53.184;8.578;2023-05-10T05:01:37;11.60;99.90
23556;DHT22;11956;53.184;8.578;2023-05-10T05:04:38;11.50;99.90
23556;DHT22;11956;53.184;8.578;2023-05-10T05:07:39;11.50;99.90
23556;DHT22;11956;53.184;8.578;2023-05-10T05:10:40;11.50;99.90
23556;DHT22;11956;53.184;8.578;2023-05-10T05:13:41;11.50;99.90
23556;DHT22;11956;53.184;8.578;2023-05-10T05:16:42;11.50;99.90
23556;DHT22;11956;53.184;8.578;2023-05-10T05:19:43;11.50;99.90
23556;DHT22;11956;53.184;8.578;2023-05-10T05:22:43;11.50;99.90
23556;DHT22;11956;53.184;8.578;2023-05-10T05:25:44;11.50;99.90
23556;DHT22;11956;53.184;8.578;2023-05-10T05:28:45;11.60;99.90
23556;DHT22;11956;53.184;8.578;2023-05-10T05:31:48;11.50;99.90
23556;DHT22;11956;53.184;8.578;2023-05-10T05:34:49;11.50;99.90
23556;DHT22;11956;53.184;8.578;2023-05-10T05:37:50;11.60;99.90
23556;DHT22;11956;53.184;8.578;2023-05-10T05:40:51;11.80;99.90
23556;DHT22;11956;53.184;8.578;2023-05-10T05:43:52;11.70;99.90
23556;DHT22;11956;53.184;8.578;2023-05-10T05:46:53;11.70;99.90
23556;DHT22;11956;53.184;8.578;2023-05-10T05:49:54;11.70;99.90
23556;DHT22;11956;53.184;8.578;2023-05-10T05:52:55;11.80;99.90
23556;DHT22;11956;53.184;8.578;2023-05-10T05:55:58;11.90;99.90
23556;DHT22;11956;53.184;8.578;2023-05-10T05:59:00;12.00;99.90
23556;DHT22;11956;53.184;8.578;2023-05-10T06:02:01;12.20;99.90
23556;DHT22;11956;53.184;8.578;2023-05-10T06:05:02;12.30;99.90
23556;DHT22;11956;53.184;8.578;2023-05-10T06:08:03;12.40;99.90
23556;DHT22;11956;53.184;8.578;2023-05-10T06:11:04;12.40;99.90
23556;DHT22;11956;53.184;8.578;2023-05-10T06:14:05;12.50;99.90
23556;DHT22;11956;53.184;8.578;2023-05-10T06:17:07;12.60;99.90
23556;DHT22;11956;53.184;8.578;2023-05-10T06:20:08;12.80;99.90
23556;DHT22;11956;53.184;8.578;2023-05-10T06:23:09;12.90;99.90
23556;DHT22;11956;53.184;8.578;2023-05-10T06:26:10;13.00;99.90
23556;DHT22;11956;53.184;8.578;2023-05-10T06:29:11;13.10;99.90
23556;DHT22;11956;53.184;8.578;2023-05-10T06:32:12;13.10;99.90
23556;DHT22;11956;53.184;8.578;2023-05-10T06:35:13;13.10;99.90
23556;DHT22;11956;53.184;8.578;2023-05-10T06:38:14;13.10;99.90
23556;DHT22;11956;53.184;8.578;2023-05-10T06:41:15;13.20;99.90
23556;DHT22;11956;53.184;8.578;2023-05-10T06:44:16;13.30;99.90
23556;DHT22;11956;53.184;8.578;2023-05-10T06:47:17;13.50;99.90
23556;DHT22;11956;53.184;8.578;2023-05-10T06:50:18;13.60;99.90
23556;DHT22;11956;53.184;8.578;2023-05-10T06:53:19;13.60;99.90
23556;DHT22;11956;53.184;8.578;2023-05-10T06:56:20;13.80;99.90
23556;DHT22;11956;53.184;8.578;2023-05-10T06:59:22;13.90;99.90
23556;DHT22;11956;53.184;8.578;2023-05-10T07:02:23;13.90;99.90
23556;DHT22;11956;53.184;8.578;2023-05-10T07:05:24;14.00;99.90
23556;DHT22;11956;53.184;8.578;2023-05-10T07:08:24;13.90;99.90
23556;DHT22;11956;53.184;8.578;2023-05-10T07:11:25;14.00;99.90
23556;DHT22;11956;53.184;8.578;2023-05-10T07:14:27;14.10;99.90
23556;DHT22;11956;53.184;8.578;2023-05-10T07:17:28;14.20;99.90
23556;DHT22;11956;53.184;8.578;2023-05-10T07:20:29;14.20;99.90
23556;DHT22;11956;53.184;8.578;2023-05-10T07:23:30;14.20;99.90
23556;DHT22;11956;53.184;8.578;2023-05-10T07:26:31;14.30;99.90
23556;DHT22;11956;53.184;8.578;2023-05-10T07:29:32;14.30;99.90
23556;DHT22;11956;53.184;8.578;2023-05-10T07:32:33;14.30;99.90
23556;DHT22;11956;53.184;8.578;2023-05-10T07:35:34;14.30;99.90
23556;DHT22;11956;53.184;8.578;2023-05-10T07:38:35;14.40;99.90
23556;DHT22;11956;53.184;8.578;2023-05-10T07:41:36;14.50;99.90
23556;DHT22;11956;53.184;8.578;2023-05-10T07:44:38;14.70;99.90
23556;DHT22;11956;53.184;8.578;2023-05-10T07:47:39;14.70;99.90
23556;DHT22;11956;53.184;8.578;2023-05-10T07:50:39;14.80;99.90
23556;DHT22;11956;53.184;8.578;2023-05-10T07:53:40;14.90;99.90
23556;DHT22;11956;53.184;8.578;2023-05-10T07:56:41;15.00;99.90
23556;DHT22;11956;53.184;8.578;2023-05-10T07:59:46;15.00;99.90
23556;DHT22;11956;53.184;8.578;2023-05-10T08:02:47;14.90;99.90
23556;DHT22;11956;53.184;8.578;2023-05-10T08:05:48;14.90;99.90
23556;DHT22;11956;53.184;8.578;2023-05-10T08:08:49;15.00;99.90
23556;DHT22;11956;53.184;8.578;2023-05-10T08:11:51;15.10;99.90
23556;DHT22;11956;53.184;8.578;2023-05-10T08:14:51;15.20;99.90
23556;DHT22;11956;53.184;8.578;2023-05-10T08:17:52;15.20;99.90
23556;DHT22;11956;53.184;8.578;2023-05-10T08:20:53;15.10;99.90
23556;DHT22;11956;53.184;8.578;2023-05-10T08:23:54;15.30;99.90
23556;DHT22;11956;53.184;8.578;2023-05-10T08:26:55;15.50;99.90
23556;DHT22;11956;53.184;8.578;2023-05-10T08:29:56;15.60;99.90
23556;DHT22;11956;53.184;8.578;2023-05-10T08:32:57;15.80;99.90
23556;DHT22;11956;53.184;8.578;2023-05-10T08:36:00;16.00;99.90
23556;DHT22;11956;53.184;8.578;2023-05-10T08:39:01;16.60;99.90
23556;DHT22;11956;53.184;8.578;2023-05-10T08:42:04;16.70;99.90
23556;DHT22;11956;53.184;8.578;2023-05-10T08:45:07;17.10;99.90
23556;DHT22;11956;53.184;8.578;2023-05-10T08:48:09;17.40;99.90
23556;DHT22;11956;53.184;8.578;2023-05-10T08:51:14;17.10;99.90
23556;DHT22;11956;53.184;8.578;2023-05-10T08:54:23;16.90;99.90
23556;DHT22;11956;53.184;8.578;2023-05-10T08:57:25;16.90;99.90
23556;DHT22;11956;53.184;8.578;2023-05-10T09:00:26;17.00;99.90
23556;DHT22;11956;53.184;8.578;2023-05-10T09:03:27;16.80;99.90
23556;DHT22;11956;53.184;8.578;2023-05-10T09:06:29;16.80;99.90
23556;DHT22;11956;53.184;8.578;2023-05-10T09:09:31;16.90;99.90
23556;DHT22;11956;53.184;8.578;2023-05-10T09:12:32;16.90;99.90
23556;DHT22;11956;53.184;8.578;2023-05-10T09:15:34;16.90;99.90
23556;DHT22;11956;53.184;8.578;2023-05-10T09:18:35;16.90;99.90
23556;DHT22;11956;53.184;8.578;2023-05-10T09:21:36;16.70;99.90
23556;DHT22;11956;53.184;8.578;2023-05-10T09:24:42;16.80;99.90
23556;DHT22;11956;53.184;8.578;2023-05-10T09:27:47;16.80;99.90
23556;DHT22;11956;53.184;8.578;2023-05-10T09:30:53;16.80;99.90
23556;DHT22;11956;53.184;8.578;2023-05-10T09:33:55;17.20;99.90
23556;DHT22;11956;53.184;8.578;2023-05-10T09:37:01;17.20;99.90
23556;DHT22;11956;53.184;8.578;2023-05-10T09:40:05;17.50;99.90
23556;DHT22;11956;53.184;8.578;2023-05-10T09:43:08;17.30;99.90
23556;DHT22;11956;53.184;8.578;2023-05-10T09:46:09;17.10;99.90
23556;DHT22;11956;53.184;8.578;2023-05-10T09:49:14;16.90;99.90
23556;DHT22;11956;53.184;8.578;2023-05-10T09:52:15;16.60;99.90
23556;DHT22;11956;53.184;8.578;2023-05-10T09:55:18;16.60;99.90
23556;DHT22;11956;53.184;8.578;2023-05-10T09:58:20;16.70;99.90
23556;DHT22;11956;53.184;8.578;2023-05-10T10:01:26;17.00;99.90
23556;DHT22;11956;53.184;8.578;2023-05-10T10:04:27;17.10;99.90
23556;DHT22;11956;53.184;8.578;2023-05-10T10:07:28;17.30;99.90
23556;DHT22;11956;53.184;8.578;2023-05-10T10:10:31;17.30;99.90
23556;DHT22;11956;53.184;8.578;2023-05-10T10:13:32;17.40;99.90
23556;DHT22;11956;53.184;8.578;2023-05-10T10:16:33;17.20;99.90
23556;DHT22;11956;53.184;8.578;2023-05-10T10:19:35;17.70;99.90
23556;DHT22;11956;53.184;8.578;2023-05-10T10:22:37;18.30;99.90
23556;DHT22;11956;53.184;8.578;2023-05-10T10:25:38;18.90;99.90
23556;DHT22;11956;53.184;8.578;2023-05-10T10:31:57;19.50;99.90
23556;DHT22;11956;53.184;8.578;2023-05-10T10:35:08;19.30;99.90
23556;DHT22;11956;53.184;8.578;2023-05-10T10:38:09;19.50;99.90
23556;DHT22;11956;53.184;8.578;2023-05-10T10:41:30;20.00;99.90
23556;DHT22;11956;53.184;8.578;2023-05-10T10:44:38;20.10;99.90
23556;DHT22;11956;53.184;8.578;2023-05-10T10:47:39;19.90;99.90
23556;DHT22;11956;53.184;8.578;2023-05-10T10:50:44;19.20;99.90
23556;DHT22;11956;53.184;8.578;2023-05-10T10:53:48;18.70;99.90
23556;DHT22;11956;53.184;8.578;2023-05-10T10:57:12;18.30;99.90
23556;DHT22;11956;53.184;8.578;2023-05-10T11:00:24;17.80;99.90
23556;DHT22;11956;53.184;8.578;2023-05-10T11:03:25;17.50;99.90
23556;DHT22;11956;53.184;8.578;2023-05-10T11:06:33;17.30;99.90
23556;DHT22;11956;53.184;8.578;2023-05-10T11:09:39;17.10;99.90
23556;DHT22;11956;53.184;8.578;2023-05-10T11:12:53;17.00;99.90
23556;DHT22;11956;53.184;8.578;2023-05-10T11:16:18;17.00;99.90
23556;DHT22;11956;53.184;8.578;2023-05-10T11:19:20;17.50;99.90
23556;DHT22;11956;53.184;8.578;2023-05-10T11:22:21;18.50;99.90
23556;DHT22;11956;53.184;8.578;2023-05-10T11:25:26;19.40;99.90
23556;DHT22;11956;53.184;8.578;2023-05-10T11:28:28;20.00;99.90
23556;DHT22;11956;53.184;8.578;2023-05-10T11:31:29;20.30;99.90
23556;DHT22;11956;53.184;8.578;2023-05-10T11:34:31;20.20;99.90
23556;DHT22;11956;53.184;8.578;2023-05-10T11:37:35;20.20;99.90
23556;DHT22;11956;53.184;8.578;2023-05-10T11:40:37;20.10;99.90
23556;DHT22;11956;53.184;8.578;2023-05-10T11:43:39;20.20;99.90
23556;DHT22;11956;53.184;8.578;2023-05-10T11:46:40;20.90;99.90
23556;DHT22;11956;53.184;8.578;2023-05-10T11:49:45;20.50;99.90
23556;DHT22;11956;53.184;8.578;2023-05-10T11:52:51;20.30;99.90
23556;DHT22;11956;53.184;8.578;2023-05-10T11:55:52;20.40;99.90
23556;DHT22;11956;53.184;8.578;2023-05-10T11:58:55;20.60;99.90
23556;DHT22;11956;53.184;8.578;2023-05-10T12:01:57;19.60;99.90
23556;DHT22;11956;53.184;8.578;2023-05-10T12:04:58;19.20;99.90
23556;DHT22;11956;53.184;8.578;2023-05-10T12:08:15;18.80;99.90
23556;DHT22;11956;53.184;8.578;2023-05-10T12:11:17;18.10;99.90
23556;DHT22;11956;53.184;8.578;2023-05-10T12:14:18;18.10;99.90
23556;DHT22;11956;53.184;8.578;2023-05-10T12:17:21;18.10;99.90
23556;DHT22;11956;53.184;8.578;2023-05-10T12:20:23;18.00;99.90
23556;DHT22;11956;53.184;8.578;2023-05-10T12:23:26;17.70;99.90
23556;DHT22;11956;53.184;8.578;2023-05-10T12:26:27;17.20;99.90
23556;DHT22;11956;53.184;8.578;2023-05-10T12:29:30;16.90;99.90
23556;DHT22;11956;53.184;8.578;2023-05-10T12:32:41;16.80;99.90
23556;DHT22;11956;53.184;8.578;2023-05-10T12:35:49;17.00;99.90
23556;DHT22;11956;53.184;8.578;2023-05-10T12:39:02;17.70;99.90
23556;DHT22;11956;53.184;8.578;2023-05-10T12:42:03;18.10;99.90
23556;DHT22;11956;53.184;8.578;2023-05-10T12:45:05;18.00;99.90
23556;DHT22;11956;53.184;8.578;2023-05-10T12:48:06;17.70;99.90
23556;DHT22;11956;53.184;8.578;2023-05-10T12:51:07;17.70;99.90
23556;DHT22;11956;53.184;8.578;2023-05-10T12:54:09;17.60;99.90
23556;DHT22;11956;53.184;8.578;2023-05-10T12:57:10;17.20;99.90
23556;DHT22;11956;53.184;8.578;2023-05-10T13:00:12;17.30;99.90
23556;DHT22;11956;53.184;8.578;2023-05-10T13:03:13;17.10;99.90
23556;DHT22;11956;53.184;8.578;2023-05-10T13:06:16;17.00;99.90
23556;DHT22;11956;53.184;8.578;2023-05-10T13:09:16;16.70;99.90
23556;DHT22;11956;53.184;8.578;2023-05-10T13:12:17;16.60;99.90
23556;DHT22;11956;53.184;8.578;2023-05-10T13:15:18;16.50;99.90
23556;DHT22;11956;53.184;8.578;2023-05-10T13:18:19;16.60;99.90
23556;DHT22;11956;53.184;8.578;2023-05-10T13:21:20;16.70;99.90
23556;DHT22;11956;53.184;8.578;2023-05-10T13:24:21;16.80;99.90
23556;DHT22;11956;53.184;8.578;2023-05-10T13:27:22;16.70;99.90
23556;DHT22;11956;53.184;8.578;2023-05-10T13:30:23;16.60;99.90
23556;DHT22;11956;53.184;8.578;2023-05-10T13:33:24;16.70;99.90
23556;DHT22;11956;53.184;8.578;2023-05-10T13:36:25;16.90;99.90
23556;DHT22;11956;53.184;8.578;2023-05-10T13:39:26;17.00;99.90
23556;DHT22;11956;53.184;8.578;2023-05-10T13:42:26;17.20;99.90
23556;DHT22;11956;53.184;8.578;2023-05-10T13:45:27;17.30;99.90
23556;DHT22;11956;53.184;8.578;2023-05-10T13:48:28;17.50;99.90
23556;DHT22;11956;53.184;8.578;2023-05-10T13:51:29;17.70;99.90
23556;DHT22;11956;53.184;8.578;2023-05-10T13:54:32;17.70;99.90
23556;DHT22;11956;53.184;8.578;2023-05-10T13:57:34;17.70;99.90
23556;DHT22;11956;53.184;8.578;2023-05-10T14:00:36;17.90;99.90
23556;DHT22;11956;53.184;8.578;2023-05-10T14:03:37;18.00;99.90
23556;DHT22;11956;53.184;8.578;2023-05-10T14:06:38;17.90;99.90
23556;DHT22;11956;53.184;8.578;2023-05-10T14:09:39;17.40;99.90
23556;DHT22;11956;53.184;8.578;2023-05-10T14:12:40;17.70;99.90
23556;DHT22;11956;53.184;8.578;2023-05-10T14:15:40;17.70;99.90
23556;DHT22;11956;53.184;8.578;2023-05-10T14:18:41;17.70;99.90
23556;DHT22;11956;53.184;8.578;2023-05-10T14:21:42;18.20;99.90
23556;DHT22;11956;53.184;8.578;2023-05-10T14:24:43;18.30;99.90
23556;DHT22;11956;53.184;8.578;2023-05-10T14:27:47;18.60;99.90
23556;DHT22;11956;53.184;8.578;2023-05-10T14:30:48;18.80;99.90
23556;DHT22;11956;53.184;8.578;2023-05-10T14:33:49;18.80;99.90
23556;DHT22;11956;53.184;8.578;2023-05-10T14:36:50;18.80;99.90
23556;DHT22;11956;53.184;8.578;2023-05-10T14:39:51;19.00;99.90
23556;DHT22;11956;53.184;8.578;2023-05-10T14:42:52;18.80;99.90
23556;DHT22;11956;53.184;8.578;2023-05-10T14:45:53;18.20;99.90
23556;DHT22;11956;53.184;8.578;2023-05-10T14:48:54;17.80;99.90
23556;DHT22;11956;53.184;8.578;2023-05-10T14:51:55;17.70;99.90
23556;DHT22;11956;53.184;8.578;2023-05-10T14:54:56;17.60;99.90
23556;DHT22;11956;53.184;8.578;2023-05-10T14:57:57;17.30;99.90
23556;DHT22;11956;53.184;8.578;2023-05-10T15:00:58;17.20;99.90
23556;DHT22;11956;53.184;8.578;2023-05-10T15:03:59;17.10;99.90
23556;DHT22;11956;53.184;8.578;2023-05-10T15:07:01;17.00;99.90
23556;DHT22;11956;53.184;8.578;2023-05-10T15:10:02;16.90;99.90
23556;DHT22;11956;53.184;8.578;2023-05-10T15:13:04;16.90;99.90
23556;DHT22;11956;53.184;8.578;2023-05-10T15:16:05;16.80;99.90
23556;DHT22;11956;53.184;8.578;2023-05-10T15:19:06;16.70;99.90
23556;DHT22;11956;53.184;8.578;2023-05-10T15:22:07;16.50;99.90
23556;DHT22;11956;53.184;8.578;2023-05-10T15:25:08;16.40;99.90
23556;DHT22;11956;53.184;8.578;2023-05-10T15:28:09;16.30;99.90
23556;DHT22;11956;53.184;8.578;2023-05-10T15:31:10;16.40;99.90
23556;DHT22;11956;53.184;8.578;2023-05-10T15:34:11;16.30;99.90
23556;DHT22;11956;53.184;8.578;2023-05-10T15:37:12;16.10;99.90
23556;DHT22;11956;53.184;8.578;2023-05-10T15:40:13;16.00;99.90
23556;DHT22;11956;53.184;8.578;2023-05-10T15:43:14;15.90;99.90
23556;DHT22;11956;53.184;8.578;2023-05-10T15:46:15;16.10;99.90
23556;DHT22;11956;53.184;8.578;2023-05-10T15:49:16;16.20;99.90
23556;DHT22;11956;53.184;8.578;2023-05-10T15:52:17;16.40;99.90
23556;DHT22;11956;53.184;8.578;2023-05-10T15:55:19;16.70;99.90
23556;DHT22;11956;53.184;8.578;2023-05-10T15:58:20;16.80;99.90
23556;DHT22;11956;53.184;8.578;2023-05-10T16:01:21;16.80;99.90
23556;DHT22;11956;53.184;8.578;2023-05-10T16:04:22;16.80;99.90
23556;DHT22;11956;53.184;8.578;2023-05-10T16:07:23;16.80;99.90
23556;DHT22;11956;53.184;8.578;2023-05-10T16:10:24;16.70;99.90
23556;DHT22;11956;53.184;8.578;2023-05-10T16:13:25;16.60;99.90
23556;DHT22;11956;53.184;8.578;2023-05-10T16:16:26;16.70;99.90
23556;DHT22;11956;53.184;8.578;2023-05-10T16:19:27;16.50;99.90
23556;DHT22;11956;53.184;8.578;2023-05-10T16:22:27;16.60;99.90
23556;DHT22;11956;53.184;8.578;2023-05-10T16:25:29;16.60;99.90
23556;DHT22;11956;53.184;8.578;2023-05-10T16:28:31;16.60;99.90
23556;DHT22;11956;53.184;8.578;2023-05-10T16:31:32;16.70;99.90
23556;DHT22;11956;53.184;8.578;2023-05-10T16:34:33;16.90;99.90
23556;DHT22;11956;53.184;8.578;2023-05-10T16:37:34;17.00;99.90
23556;DHT22;11956;53.184;8.578;2023-05-10T16:40:35;17.00;99.90
23556;DHT22;11956;53.184;8.578;2023-05-10T16:43:36;16.90;99.90
23556;DHT22;11956;53.184;8.578;2023-05-10T16:46:37;16.70;99.90
23556;DHT22;11956;53.184;8.578;2023-05-10T16:49:38;16.70;99.90
23556;DHT22;11956;53.184;8.578;2023-05-10T16:52:38;16.80;99.90
23556;DHT22;11956;53.184;8.578;2023-05-10T16:55:39;16.70;99.90
23556;DHT22;11956;53.184;8.578;2023-05-10T16:58:40;16.80;99.90
23556;DHT22;11956;53.184;8.578;2023-05-10T17:01:42;16.80;99.90
23556;DHT22;11956;53.184;8.578;2023-05-10T17:04:43;16.80;99.90
23556;DHT22;11956;53.184;8.578;2023-05-10T17:07:44;16.90;99.90
23556;DHT22;11956;53.184;8.578;2023-05-10T17:10:45;16.80;99.90
23556;DHT22;11956;53.184;8.578;2023-05-10T17:13:46;16.70;99.90
23556;DHT22;11956;53.184;8.578;2023-05-10T17:16:47;16.60;99.90
23556;DHT22;11956;53.184;8.578;2023-05-10T17:19:48;16.50;99.90
23556;DHT22;11956;53.184;8.578;2023-05-10T17:22:49;16.30;99.90
23556;DHT22;11956;53.184;8.578;2023-05-10T17:25:50;16.30;99.90
23556;DHT22;11956;53.184;8.578;2023-05-10T17:28:52;16.30;99.90
23556;DHT22;11956;53.184;8.578;2023-05-10T17:31:54;16.40;99.90
23556;DHT22;11956;53.184;8.578;2023-05-10T17:34:54;16.30;99.90
23556;DHT22;11956;53.184;8.578;2023-05-10T17:37:56;16.30;99.90
23556;DHT22;11956;53.184;8.578;2023-05-10T17:40:57;16.30;99.90
23556;DHT22;11956;53.184;8.578;2023-05-10T17:43:57;16.00;99.90
23556;DHT22;11956;53.184;8.578;2023-05-10T17:46:58;15.90;99.90
23556;DHT22;11956;53.184;8.578;2023-05-10T17:49:59;15.90;99.90
23556;DHT22;11956;53.184;8.578;2023-05-10T17:53:00;15.90;99.90
23556;DHT22;11956;53.184;8.578;2023-05-10T17:56:02;15.80;99.90
23556;DHT22;11956;53.184;8.578;2023-05-10T17:59:03;15.60;99.90
23556;DHT22;11956;53.184;8.578;2023-05-10T18:02:05;15.40;99.90
23556;DHT22;11956;53.184;8.578;2023-05-10T18:05:06;15.40;99.90
23556;DHT22;11956;53.184;8.578;2023-05-10T18:08:07;15.30;99.90
23556;DHT22;11956;53.184;8.578;2023-05-10T18:11:09;15.30;99.90
23556;DHT22;11956;53.184;8.578;2023-05-10T18:14:09;15.20;99.90
23556;DHT22;11956;53.184;8.578;2023-05-10T18:17:10;15.20;99.90
23556;DHT22;11956;53.184;8.578;2023-05-10T18:20:11;15.10;99.90
23556;DHT22;11956;53.184;8.578;2023-05-10T18:23:12;15.10;99.90
23556;DHT22;11956;53.184;8.578;2023-05-10T18:26:14;15.00;99.90
23556;DHT22;11956;53.184;8.578;2023-05-10T18:29:16;15.00;99.90
23556;DHT22;11956;53.184;8.578;2023-05-10T18:32:17;15.00;99.90
23556;DHT22;11956;53.184;8.578;2023-05-10T18:35:18;15.00;99.90
23556;DHT22;11956;53.184;8.578;2023-05-10T18:38:19;15.10;99.90
23556;DHT22;11956;53.184;8.578;2023-05-10T18:41:20;15.10;99.90
23556;DHT22;11956;53.184;8.578;2023-05-10T18:44:21;15.10;99.90
23556;DHT22;11956;53.184;8.578;2023-05-10T18:47:25;15.10;99.90
23556;DHT22;11956;53.184;8.578;2023-05-10T18:50:26;15.20;99.90
23556;DHT22;11956;53.184;8.578;2023-05-10T18:53:27;15.10;99.90
23556;DHT22;11956;53.184;8.578;2023-05-10T18:56:28;15.10;99.90
23556;DHT22;11956;53.184;8.578;2023-05-10T18:59:28;15.10;99.90
23556;DHT22;11956;53.184;8.578;2023-05-10T19:02:30;15.00;99.90
23556;DHT22;11956;53.184;8.578;2023-05-10T19:05:30;15.00;99.90
23556;DHT22;11956;53.184;8.578;2023-05-10T19:08:31;15.00;99.90
23556;DHT22;11956;53.184;8.578;2023-05-10T19:11:32;14.90;99.90
23556;DHT22;11956;53.184;8.578;2023-05-10T19:14:33;14.90;99.90
23556;DHT22;11956;53.184;8.578;2023-05-10T19:17:34;14.80;99.90
23556;DHT22;11956;53.184;8.578;2023-05-10T19:20:36;14.80;99.90
23556;DHT22;11956;53.184;8.578;2023-05-10T19:23:37;14.70;99.90
23556;DHT22;11956;53.184;8.578;2023-05-10T19:26:42;14.70;99.90
23556;DHT22;11956;53.184;8.578;2023-05-10T19:29:43;14.60;99.90
23556;DHT22;11956;53.184;8.578;2023-05-10T19:32:44;14.50;99.90